createdAt,value
2023-05-18T00:01:22.404Z,3.00
2023-05-18T00:04:02.559Z,3.40
2023-05-18T00:06:45.264Z,3.20
2023-05-18T00:09:18.629Z,2.60
2023-05-18T00:12:07.980Z,2.90
2023-05-18T00:14:45.133Z,3.00
2023-05-18T00:17:22.002Z,3.00
2023-05-18T00:20:09.241Z,2.50
2023-05-18T00:22:43.628Z,2.80
2023-05-18T00:25:33.562Z,2.80
2023-05-18T00:28:33.904Z,2.80
2023-05-18T00:31:08.133Z,2.60
2023-05-18T00:33:45.728Z,2.50
2023-05-18T00:36:27.173Z,2.70
2023-05-18T00:39:01.671Z,2.90
2023-05-18T00:41:36.566Z,3.00
2023-05-18T00:44:09.900Z,2.50
2023-05-18T00:46:50.282Z,3.00
2023-05-18T00:49:28.054Z,3.50
2023-05-18T00:52:00.811Z,2.90
2023-05-18T00:54:37.922Z,3.00
2023-05-18T00:57:21.566Z,2.90
2023-05-18T01:00:10.934Z,2.50
2023-05-18T01:02:56.269Z,2.60
2023-05-18T01:05:39.444Z,2.50
2023-05-18T01:08:17.017Z,3.00
2023-05-18T01:11:01.736Z,2.80
2023-05-18T01:13:51.227Z,2.90
2023-05-18T01:16:34.321Z,2.50
2023-05-18T01:19:28.758Z,3.30
2023-05-18T01:22:09.991Z,3.10
2023-05-18T01:24:53.587Z,3.00
2023-05-18T01:27:36.087Z,3.10
2023-05-18T01:30:19.551Z,3.30
2023-05-18T01:33:01.945Z,3.10
2023-05-18T01:35:48.875Z,3.10
2023-05-18T01:38:24.692Z,3.70
2023-05-18T01:41:04.883Z,3.40
2023-05-18T01:44:05.684Z,3.20
2023-05-18T01:47:05.939Z,3.30
2023-05-18T01:50:00.258Z,3.60
2023-05-18T01:52:43.683Z,3.30
2023-05-18T01:55:21.063Z,3.40
2023-05-18T01:57:58.818Z,3.70
2023-05-18T02:00:36.072Z,3.10
2023-05-18T02:03:43.061Z,3.10
2023-05-18T02:06:27.905Z,3.40
2023-05-18T02:09:02.249Z,3.50
2023-05-18T02:11:35.735Z,3.50
2023-05-18T02:14:08.848Z,3.60
2023-05-18T02:16:47.747Z,3.30
2023-05-18T02:19:21.266Z,3.40
2023-05-18T02:21:54.734Z,3.50
2023-05-18T02:24:28.112Z,3.60
2023-05-18T02:27:03.552Z,3.80
2023-05-18T02:29:36.455Z,3.30
2023-05-18T02:32:11.123Z,3.80
2023-05-18T02:34:51.098Z,3.80
2023-05-18T02:37:26.486Z,4.00
2023-05-18T02:40:06.021Z,3.70
2023-05-18T02:42:44.588Z,4.00
2023-05-18T02:45:23.311Z,3.60
2023-05-18T02:48:16.197Z,3.60
2023-05-18T02:50:51.568Z,3.50
2023-05-18T02:53:44.684Z,3.30
2023-05-18T02:56:54.305Z,3.60
2023-05-18T02:59:33.816Z,3.30
2023-05-18T03:02:16.795Z,3.50
2023-05-18T03:04:54.368Z,3.50
2023-05-18T03:07:35.463Z,3.20
2023-05-18T03:10:10.507Z,3.50
2023-05-18T03:12:50.089Z,3.30
2023-05-18T03:15:32.531Z,3.10
2023-05-18T03:18:05.854Z,3.10
2023-05-18T03:20:48.193Z,3.40
2023-05-18T03:23:32.715Z,3.20
2023-05-18T03:26:18.835Z,3.80
2023-05-18T03:28:55.474Z,3.20
2023-05-18T03:31:32.699Z,3.20
2023-05-18T03:34:11.522Z,3.40
2023-05-18T03:36:47.576Z,3.00
2023-05-18T03:39:29.091Z,3.30
2023-05-18T03:42:02.258Z,3.20
2023-05-18T03:44:37.458Z,2.90
2023-05-18T03:47:16.925Z,2.90
2023-05-18T03:49:59.470Z,3.60
2023-05-18T03:52:46.118Z,3.20
2023-05-18T03:55:46.042Z,3.30
2023-05-18T03:58:20.409Z,3.20
2023-05-18T04:00:56.963Z,3.20
2023-05-18T04:03:36.492Z,3.40
2023-05-18T04:06:14.031Z,3.20
2023-05-18T04:09:04.393Z,3.50
2023-05-18T04:11:43.784Z,3.70
2023-05-18T04:14:27.254Z,3.00
2023-05-18T04:17:05.530Z,3.20
2023-05-18T04:19:43.168Z,3.20
2023-05-18T04:22:19.406Z,3.70
2023-05-18T04:24:57.997Z,3.50
2023-05-18T04:27:34.555Z,3.30
2023-05-18T04:30:17.602Z,3.50
2023-05-18T04:32:58.792Z,3.80
2023-05-18T04:35:41.228Z,3.40
2023-05-18T04:38:17.182Z,3.50
2023-05-18T04:41:01.870Z,3.30
2023-05-18T04:43:38.922Z,3.30
2023-05-18T04:46:20.040Z,3.30
2023-05-18T04:49:03.000Z,3.50
2023-05-18T04:51:44.480Z,3.50
2023-05-18T04:54:22.753Z,3.60
2023-05-18T04:57:02.327Z,3.30
2023-05-18T04:59:37.671Z,3.70
2023-05-18T05:02:11.992Z,3.60
2023-05-18T05:04:51.157Z,3.30
2023-05-18T05:07:29.457Z,3.70
2023-05-18T05:10:04.126Z,3.30
2023-05-18T05:12:49.719Z,3.20
2023-05-18T05:15:27.798Z,3.70
2023-05-18T05:18:03.141Z,3.50
2023-05-18T05:20:40.558Z,3.70
2023-05-18T05:23:22.845Z,3.40
2023-05-18T05:26:00.601Z,3.40
2023-05-18T05:28:37.791Z,3.20
2023-05-18T05:31:17.680Z,3.60
2023-05-18T05:33:53.408Z,3.10
2023-05-18T05:36:33.099Z,2.70
2023-05-18T05:39:06.901Z,2.80
2023-05-18T05:41:42.949Z,2.60
2023-05-18T05:44:24.676Z,2.70
2023-05-18T05:47:02.250Z,2.60
2023-05-18T05:49:46.900Z,2.60
2023-05-18T05:52:28.135Z,2.60
2023-05-18T05:55:10.804Z,2.60
2023-05-18T05:57:47.179Z,2.90
2023-05-18T06:00:34.636Z,2.30
2023-05-18T06:03:19.203Z,2.50
2023-05-18T06:05:59.366Z,2.30
2023-05-18T06:08:36.828Z,1.90
2023-05-18T06:11:14.619Z,1.90
2023-05-18T06:13:55.874Z,1.90
2023-05-18T06:16:34.932Z,1.50
2023-05-18T06:19:12.796Z,1.70
2023-05-18T06:21:55.345Z,1.50
2023-05-18T06:24:42.504Z,1.70
2023-05-18T06:27:51.097Z,1.40
2023-05-18T06:30:55.579Z,1.50
2023-05-18T06:33:45.286Z,1.60
2023-05-18T06:36:33.340Z,1.50
2023-05-18T06:39:10.037Z,1.50
2023-05-18T06:41:47.475Z,1.30
2023-05-18T06:44:35.578Z,1.40
2023-05-18T06:47:20.400Z,1.30
2023-05-18T06:50:07.757Z,1.10
2023-05-18T06:52:48.912Z,1.00
2023-05-18T06:55:29.160Z,2.90
2023-05-18T06:58:04.106Z,1.10
2023-05-18T07:00:40.837Z,1.20
2023-05-18T07:03:16.167Z,1.50
2023-05-18T07:05:50.715Z,1.30
2023-05-18T07:08:30.348Z,1.00
2023-05-18T07:11:11.579Z,1.00
2023-05-18T07:13:46.280Z,1.30
2023-05-18T07:16:20.717Z,1.20
2023-05-18T07:18:55.369Z,1.00
2023-05-18T07:21:33.766Z,1.40
2023-05-18T07:24:10.960Z,1.30
2023-05-18T07:26:45.416Z,1.30
2023-05-18T07:29:40.257Z,1.20
2023-05-18T07:32:23.718Z,1.30
2023-05-18T07:34:59.820Z,1.30
2023-05-18T07:37:34.041Z,1.20
2023-05-18T07:40:11.669Z,1.30
2023-05-18T07:43:01.992Z,1.30
2023-05-18T07:46:09.365Z,1.30
2023-05-18T07:48:48.950Z,1.10
2023-05-18T07:51:22.747Z,1.10
2023-05-18T07:53:58.028Z,1.30
2023-05-18T07:56:33.579Z,1.10
2023-05-18T07:59:16.972Z,1.00
2023-05-18T08:02:03.745Z,1.00
2023-05-18T08:04:50.718Z,1.10
2023-05-18T08:07:26.581Z,1.00
2023-05-18T08:10:05.804Z,0.80
2023-05-18T08:12:47.112Z,0.80
2023-05-18T08:15:30.549Z,1.00
2023-05-18T08:18:08.123Z,0.90
2023-05-18T08:20:45.484Z,0.80
2023-05-18T08:23:22.119Z,0.90
2023-05-18T08:25:57.401Z,0.80
2023-05-18T08:28:46.670Z,0.80
2023-05-18T08:31:22.543Z,0.60
2023-05-18T08:34:03.876Z,0.90
2023-05-18T08:36:46.762Z,1.90
2023-05-18T08:39:33.631Z,0.90
2023-05-18T08:42:19.841Z,0.80
2023-05-18T08:45:11.680Z,0.80
2023-05-18T08:47:45.765Z,0.70
2023-05-18T08:50:26.820Z,1.00
2023-05-18T08:53:09.006Z,1.10
2023-05-18T08:55:50.445Z,0.90
2023-05-18T08:58:36.348Z,0.90
2023-05-18T09:01:16.083Z,0.90
2023-05-18T09:04:01.715Z,1.40
2023-05-18T09:06:44.102Z,1.00
2023-05-18T09:09:17.387Z,1.00
2023-05-18T09:11:55.449Z,1.40
2023-05-18T09:14:39.127Z,1.20
2023-05-18T09:17:16.987Z,1.20
2023-05-18T09:19:53.185Z,1.30
2023-05-18T09:22:27.026Z,1.90
2023-05-18T09:25:11.195Z,0.90
2023-05-18T09:27:56.313Z,1.10
2023-05-18T09:30:31.813Z,1.20
2023-05-18T09:33:19.360Z,1.00
2023-05-18T09:36:01.803Z,1.00
2023-05-18T09:38:41.005Z,1.10
2023-05-18T09:41:17.988Z,1.00
2023-05-18T09:43:54.399Z,0.90
2023-05-18T09:46:39.253Z,1.20
2023-05-18T09:49:25.052Z,0.80
2023-05-18T09:52:01.765Z,1.00
2023-05-18T09:54:40.939Z,1.70
2023-05-18T09:57:29.063Z,0.90
2023-05-18T10:00:11.484Z,1.10
2023-05-18T10:02:52.897Z,1.20
2023-05-18T10:05:28.002Z,0.90
2023-05-18T10:08:25.922Z,1.10
2023-05-18T10:11:00.254Z,1.30
2023-05-18T10:13:39.076Z,0.90
2023-05-18T10:16:18.828Z,0.90
2023-05-18T10:18:55.120Z,0.90
2023-05-18T10:21:36.738Z,0.90
2023-05-18T10:24:26.099Z,1.10
2023-05-18T10:27:08.844Z,1.10
2023-05-18T10:29:58.187Z,1.10
2023-05-18T10:35:56.531Z,0.90
2023-05-18T10:38:30.151Z,0.80
2023-05-18T10:41:07.878Z,0.90
2023-05-18T10:44:13.551Z,1.10
2023-05-18T10:46:48.686Z,3.20
2023-05-18T10:49:26.727Z,2.70
2023-05-18T10:52:06.215Z,1.20
2023-05-18T10:54:46.561Z,1.80
2023-05-18T10:57:23.742Z,1.10
2023-05-18T11:00:12.473Z,1.50
2023-05-18T11:02:46.216Z,1.30
2023-05-18T11:05:32.769Z,1.50
2023-05-18T11:08:13.063Z,1.20
2023-05-18T11:10:54.408Z,1.50
2023-05-18T11:13:32.330Z,1.10
2023-05-18T11:16:10.789Z,1.10
2023-05-18T11:18:50.779Z,3.00
2023-05-18T11:21:52.212Z,0.90
2023-05-18T11:24:31.099Z,1.10
2023-05-18T11:27:16.449Z,0.90
2023-05-18T11:29:57.758Z,0.80
2023-05-18T11:32:43.622Z,0.90
2023-05-18T11:35:30.564Z,1.10
2023-05-18T11:38:13.660Z,1.00
2023-05-18T11:40:53.870Z,0.90
2023-05-18T11:43:28.985Z,0.70
2023-05-18T11:46:04.319Z,1.10
2023-05-18T11:48:54.425Z,0.90
2023-05-18T11:51:29.592Z,1.00
2023-05-18T11:54:10.953Z,0.80
2023-05-18T11:56:53.307Z,0.90
2023-05-18T11:59:47.661Z,1.40
2023-05-18T12:02:40.764Z,1.40
2023-05-18T12:05:17.752Z,3.00
2023-05-18T12:07:59.281Z,1.10
2023-05-18T12:10:37.095Z,1.00
2023-05-18T12:13:14.016Z,1.50
2023-05-18T12:15:53.567Z,1.40
2023-05-18T12:18:40.629Z,1.00
2023-05-18T12:21:20.328Z,1.30
2023-05-18T12:24:03.854Z,0.90
2023-05-18T12:26:42.263Z,1.10
2023-05-18T12:29:20.926Z,0.90
2023-05-18T12:31:58.658Z,1.00
2023-05-18T12:34:54.411Z,1.10
2023-05-18T12:37:38.144Z,1.10
2023-05-18T12:40:23.629Z,1.10
2023-05-18T12:43:05.972Z,1.10
2023-05-18T12:45:40.008Z,2.50
2023-05-18T12:48:17.702Z,1.00
2023-05-18T12:50:57.840Z,1.00
2023-05-18T12:53:51.665Z,1.00
2023-05-18T12:56:51.895Z,0.90
2023-05-18T12:59:26.823Z,1.10
2023-05-18T13:02:26.133Z,5.90
2023-05-18T13:05:16.413Z,1.10
2023-05-18T13:07:52.838Z,1.30
2023-05-18T13:10:35.597Z,4.10
2023-05-18T13:13:13.973Z,1.10
2023-05-18T13:15:48.774Z,1.40
2023-05-18T13:18:32.255Z,1.10
2023-05-18T13:21:13.985Z,1.00
2023-05-18T13:24:07.138Z,1.20
2023-05-18T13:26:48.766Z,12.20
2023-05-18T13:29:26.211Z,27.20
2023-05-18T13:32:04.038Z,32.30
2023-05-18T13:34:48.380Z,18.50
2023-05-18T13:37:27.193Z,18.90
2023-05-18T13:40:02.944Z,2.20
2023-05-18T13:42:45.309Z,1.50
2023-05-18T13:45:22.978Z,1.10
2023-05-18T13:47:58.844Z,21.00
2023-05-18T13:50:36.888Z,8.00
2023-05-18T13:53:17.621Z,1.20
2023-05-18T13:55:55.506Z,1.10
2023-05-18T13:58:34.238Z,0.90
2023-05-18T14:01:13.443Z,0.90
2023-05-18T14:03:49.417Z,1.20
2023-05-18T14:06:30.214Z,1.00
2023-05-18T14:09:06.096Z,0.90
2023-05-18T14:11:47.733Z,1.10
2023-05-18T14:14:21.801Z,1.30
2023-05-18T14:17:00.033Z,0.80
2023-05-18T14:19:38.196Z,0.90
2023-05-18T14:22:17.612Z,1.10
2023-05-18T14:25:02.558Z,2.60
2023-05-18T14:27:44.499Z,0.90
2023-05-18T14:30:21.592Z,1.20
2023-05-18T14:32:57.823Z,0.90
2023-05-18T14:35:51.475Z,0.90
2023-05-18T14:38:29.374Z,1.20
2023-05-18T14:41:06.623Z,1.00
2023-05-18T14:43:53.330Z,1.00
2023-05-18T14:46:30.000Z,1.20
2023-05-18T14:49:13.741Z,1.00
2023-05-18T14:51:58.091Z,1.10
2023-05-18T14:54:37.369Z,1.10
2023-05-18T14:57:14.749Z,1.10
2023-05-18T14:59:55.202Z,1.00
2023-05-18T15:02:34.330Z,1.00
2023-05-18T15:05:12.491Z,1.10
2023-05-18T15:07:47.292Z,1.20
2023-05-18T15:10:29.504Z,1.00
2023-05-18T15:13:10.318Z,1.20
2023-05-18T15:15:51.236Z,0.90
2023-05-18T15:18:26.113Z,0.90
2023-05-18T15:21:03.801Z,0.80
2023-05-18T15:23:39.902Z,1.80
2023-05-18T15:26:26.497Z,1.00
2023-05-18T15:29:07.822Z,0.90
2023-05-18T15:32:02.508Z,0.70
2023-05-18T15:34:44.392Z,0.90
2023-05-18T15:37:19.721Z,0.60
2023-05-18T15:39:56.047Z,0.70
2023-05-18T15:42:34.244Z,0.80
2023-05-18T15:45:12.267Z,1.30
2023-05-18T15:47:51.155Z,1.00
2023-05-18T15:50:28.212Z,1.20
2023-05-18T15:53:05.832Z,1.10
2023-05-18T15:55:44.665Z,1.10
2023-05-18T15:58:23.791Z,0.60
2023-05-18T16:00:58.729Z,1.00
2023-05-18T16:03:36.176Z,0.80
2023-05-18T16:06:12.916Z,0.80
2023-05-18T16:08:48.602Z,1.00
2023-05-18T16:11:27.232Z,0.90
2023-05-18T16:14:06.013Z,0.90
2023-05-18T16:16:50.141Z,0.80
2023-05-18T16:19:24.185Z,0.80
2023-05-18T16:22:01.165Z,0.80
2023-05-18T16:24:45.020Z,0.60
2023-05-18T16:27:23.048Z,0.80
2023-05-18T16:29:58.101Z,0.70
2023-05-18T16:32:32.930Z,0.80
2023-05-18T16:35:18.721Z,1.10
2023-05-18T16:37:59.484Z,1.20
2023-05-18T16:40:39.269Z,1.00
2023-05-18T16:43:16.425Z,0.90
2023-05-18T16:45:54.954Z,1.40
2023-05-18T16:48:29.450Z,1.30
2023-05-18T16:51:15.949Z,1.10
2023-05-18T16:53:53.006Z,1.30
2023-05-18T16:56:30.359Z,1.10
2023-05-18T16:59:20.681Z,1.20
2023-05-18T17:01:58.432Z,1.20
2023-05-18T17:04:33.136Z,1.00
2023-05-18T17:07:10.391Z,1.00
2023-05-18T17:09:45.433Z,0.80
2023-05-18T17:12:22.703Z,1.50
2023-05-18T17:15:03.490Z,1.10
2023-05-18T17:17:42.102Z,1.30
2023-05-18T17:20:32.088Z,1.30
2023-05-18T17:23:18.936Z,1.40
2023-05-18T17:26:00.860Z,1.00
2023-05-18T17:28:41.232Z,1.00
2023-05-18T17:31:29.438Z,0.90
2023-05-18T17:34:09.152Z,1.00
2023-05-18T17:36:52.826Z,1.00
2023-05-18T17:39:28.052Z,1.80
2023-05-18T17:42:06.202Z,0.90
2023-05-18T17:44:48.273Z,2.10
2023-05-18T17:47:24.898Z,1.30
2023-05-18T17:50:11.107Z,1.30
2023-05-18T17:52:48.777Z,2.20
2023-05-18T17:55:22.503Z,2.40
2023-05-18T17:58:05.544Z,1.30
2023-05-18T18:00:48.329Z,1.00
2023-05-18T18:03:24.691Z,1.50
2023-05-18T18:06:23.433Z,1.10
2023-05-18T18:08:59.047Z,1.30
2023-05-18T18:11:33.496Z,1.30
2023-05-18T18:14:34.327Z,1.20
2023-05-18T18:17:11.089Z,1.10
2023-05-18T18:20:02.690Z,1.30
2023-05-18T18:22:36.086Z,1.10
2023-05-18T18:25:14.325Z,1.20
2023-05-18T18:27:51.563Z,1.30
2023-05-18T18:30:38.667Z,1.20
2023-05-18T18:33:21.191Z,2.50
2023-05-18T18:35:59.820Z,1.90
2023-05-18T18:38:34.906Z,1.40
2023-05-18T18:41:09.367Z,1.30
2023-05-18T18:44:02.563Z,1.00
2023-05-18T18:47:01.627Z,1.40
2023-05-18T18:49:44.356Z,1.30
2023-05-18T18:52:23.186Z,1.50
2023-05-18T18:55:05.022Z,2.30
2023-05-18T18:57:45.042Z,1.60
2023-05-18T19:00:24.698Z,1.80
2023-05-18T19:03:06.385Z,1.50
2023-05-18T19:05:51.893Z,1.30
2023-05-18T19:08:30.780Z,1.40
2023-05-18T19:11:16.260Z,1.60
2023-05-18T19:13:52.407Z,1.40
2023-05-18T19:16:31.115Z,1.30
2023-05-18T19:19:16.715Z,1.40
2023-05-18T19:22:08.672Z,1.60
2023-05-18T19:24:47.012Z,1.60
2023-05-18T19:27:35.132Z,2.00
2023-05-18T19:30:16.736Z,1.60
2023-05-18T19:32:51.748Z,1.50
2023-05-18T19:35:36.272Z,1.30
2023-05-18T19:38:18.514Z,1.40
2023-05-18T19:40:52.084Z,1.50
2023-05-18T19:43:31.756Z,2.10
2023-05-18T19:46:07.482Z,1.60
2023-05-18T19:48:43.791Z,1.50
2023-05-18T19:51:20.102Z,1.40
2023-05-18T19:54:04.791Z,1.60
2023-05-18T19:56:42.436Z,1.60
2023-05-18T19:59:16.068Z,2.90
2023-05-18T20:02:00.718Z,1.40
2023-05-18T20:04:41.921Z,2.10
2023-05-18T20:07:15.331Z,1.70
2023-05-18T20:09:55.056Z,1.70
2023-05-18T20:12:29.602Z,1.90
2023-05-18T20:15:03.349Z,1.80
2023-05-18T20:17:37.809Z,3.90
2023-05-18T20:20:12.514Z,4.40
2023-05-18T20:22:45.394Z,3.70
2023-05-18T20:25:19.406Z,9.60
2023-05-18T20:27:52.910Z,10.30
2023-05-18T20:30:35.710Z,7.40
2023-05-18T20:33:17.294Z,35.10
2023-05-18T20:35:50.369Z,3.80
2023-05-18T20:38:32.007Z,6.00
2023-05-18T20:41:08.598Z,4.50
2023-05-18T20:43:41.709Z,2.10
2023-05-18T20:46:15.793Z,2.50
2023-05-18T20:48:57.156Z,1.90
2023-05-18T20:54:46.183Z,2.70
2023-05-18T20:57:28.421Z,4.00
2023-05-18T21:00:06.375Z,4.00
2023-05-18T21:02:47.071Z,2.60
2023-05-18T21:05:24.551Z,2.20
2023-05-18T21:08:08.626Z,1.40
2023-05-18T21:10:55.457Z,1.80
2023-05-18T21:13:37.318Z,2.50
2023-05-18T21:16:23.734Z,1.90
2023-05-18T21:19:01.960Z,1.90
2023-05-18T21:21:45.520Z,2.00
2023-05-18T21:24:22.023Z,1.70
2023-05-18T21:26:57.798Z,2.50
2023-05-18T21:29:37.648Z,2.00
2023-05-18T21:32:13.912Z,2.10
2023-05-18T21:35:03.440Z,2.10
2023-05-18T21:37:36.322Z,2.10
2023-05-18T21:40:11.796Z,2.00
2023-05-18T21:42:49.511Z,2.10
2023-05-18T21:45:33.490Z,2.00
2023-05-18T21:48:25.991Z,1.80
2023-05-18T21:51:01.324Z,2.00
2023-05-18T21:53:40.133Z,1.90
2023-05-18T21:56:24.156Z,1.90
2023-05-18T21:58:59.975Z,1.70
2023-05-18T22:01:38.909Z,1.90
2023-05-18T22:04:17.704Z,2.00
2023-05-18T22:07:00.913Z,2.10
2023-05-18T22:09:40.494Z,1.80
2023-05-18T22:12:24.587Z,1.70
2023-05-18T22:15:17.230Z,1.50
2023-05-18T22:18:02.192Z,1.20
2023-05-18T22:20:37.265Z,1.30
2023-05-18T22:23:24.306Z,1.10
2023-05-18T22:25:59.437Z,1.40
2023-05-18T22:28:47.708Z,1.30
2023-05-18T22:31:22.177Z,1.30
2023-05-18T22:34:10.335Z,1.70
2023-05-18T22:36:55.136Z,1.00
2023-05-18T22:39:31.105Z,1.20
2023-05-18T22:42:11.831Z,1.20
2023-05-18T22:44:44.763Z,1.30
2023-05-18T22:47:23.877Z,1.30
2023-05-18T22:49:59.880Z,1.30
2023-05-18T22:52:36.972Z,1.10
2023-05-18T22:55:16.338Z,1.20
2023-05-18T22:57:49.384Z,1.40
2023-05-18T23:00:28.570Z,1.50
2023-05-18T23:03:01.957Z,2.10
2023-05-18T23:05:37.800Z,1.70
2023-05-18T23:08:13.726Z,1.20
2023-05-18T23:10:51.247Z,1.40
2023-05-18T23:13:33.212Z,1.30
2023-05-18T23:16:06.361Z,1.40
2023-05-18T23:18:40.096Z,1.40
2023-05-18T23:21:17.124Z,1.50
2023-05-18T23:23:55.552Z,1.30
2023-05-18T23:26:33.211Z,1.30
2023-05-18T23:29:11.116Z,1.10
2023-05-18T23:31:45.099Z,1.60
2023-05-18T23:34:24.629Z,1.60
2023-05-18T23:37:11.877Z,1.40
2023-05-18T23:39:54.380Z,1.50
2023-05-18T23:42:35.833Z,1.40
2023-05-18T23:45:21.021Z,1.40
2023-05-18T23:47:59.746Z,1.30
2023-05-18T23:50:47.240Z,1.30
2023-05-18T23:53:25.480Z,1.20
2023-05-18T23:56:09.276Z,3.10
2023-05-18T23:58:53.742Z,2.40
